sensor_id;sensor_type;location;lat;lon;timestamp;temperature;humidity
7708;DHT22;3896;48.758;8.888;2024-02-15T00:01:30;12.00;99.90
7708;DHT22;3896;48.758;8.888;2024-02-15T00:03:56;11.90;99.90
7708;DHT22;3896;48.758;8.888;2024-02-15T00:06:22;11.90;99.90
7708;DHT22;3896;48.758;8.888;2024-02-15T00:08:48;11.90;99.90
7708;DHT22;3896;48.758;8.888;2024-02-15T00:11:15;11.90;99.90
7708;DHT22;3896;48.758;8.888;2024-02-15T00:13:40;11.90;99.90
7708;DHT22;3896;48.758;8.888;2024-02-15T00:16:06;11.80;99.90
7708;DHT22;3896;48.758;8.888;2024-02-15T00:18:32;11.80;99.90
7708;DHT22;3896;48.758;8.888;2024-02-15T00:20:58;11.80;99.90
7708;DHT22;3896;48.758;8.888;2024-02-15T00:23:25;11.80;99.90
7708;DHT22;3896;48.758;8.888;2024-02-15T00:25:50;11.70;99.90
7708;DHT22;3896;48.758;8.888;2024-02-15T00:28:16;11.70;99.90
7708;DHT22;3896;48.758;8.888;2024-02-15T00:30:42;11.70;99.90
7708;DHT22;3896;48.758;8.888;2024-02-15T00:33:08;11.70;99.90
7708;DHT22;3896;48.758;8.888;2024-02-15T00:35:33;11.70;99.90
7708;DHT22;3896;48.758;8.888;2024-02-15T00:37:59;11.70;99.90
7708;DHT22;3896;48.758;8.888;2024-02-15T00:40:25;11.70;99.90
7708;DHT22;3896;48.758;8.888;2024-02-15T00:42:50;11.70;99.90
7708;DHT22;3896;48.758;8.888;2024-02-15T00:45:16;11.60;99.90
7708;DHT22;3896;48.758;8.888;2024-02-15T00:47:41;11.60;99.90
7708;DHT22;3896;48.758;8.888;2024-02-15T00:50:08;11.60;99.90
7708;DHT22;3896;48.758;8.888;2024-02-15T00:52:34;11.60;99.90
7708;DHT22;3896;48.758;8.888;2024-02-15T00:54:59;11.50;99.90
7708;DHT22;3896;48.758;8.888;2024-02-15T00:57:25;11.50;99.90
7708;DHT22;3896;48.758;8.888;2024-02-15T00:59:50;11.50;99.90
7708;DHT22;3896;48.758;8.888;2024-02-15T01:02:17;11.40;99.90
7708;DHT22;3896;48.758;8.888;2024-02-15T01:04:43;11.40;99.90
7708;DHT22;3896;48.758;8.888;2024-02-15T01:07:11;11.40;99.90
7708;DHT22;3896;48.758;8.888;2024-02-15T01:09:37;11.40;99.90
7708;DHT22;3896;48.758;8.888;2024-02-15T01:12:02;11.30;99.90
7708;DHT22;3896;48.758;8.888;2024-02-15T01:14:29;11.30;99.90
7708;DHT22;3896;48.758;8.888;2024-02-15T01:16:56;11.30;99.90
7708;DHT22;3896;48.758;8.888;2024-02-15T01:19:22;11.30;99.90
7708;DHT22;3896;48.758;8.888;2024-02-15T01:21:47;11.20;99.90
7708;DHT22;3896;48.758;8.888;2024-02-15T01:24:13;11.20;99.90
7708;DHT22;3896;48.758;8.888;2024-02-15T01:26:39;11.20;99.90
7708;DHT22;3896;48.758;8.888;2024-02-15T01:29:04;11.10;99.90
7708;DHT22;3896;48.758;8.888;2024-02-15T01:31:30;11.10;99.90
7708;DHT22;3896;48.758;8.888;2024-02-15T01:33:55;11.10;99.90
7708;DHT22;3896;48.758;8.888;2024-02-15T01:36:22;11.10;99.90
7708;DHT22;3896;48.758;8.888;2024-02-15T01:38:48;11.10;99.90
7708;DHT22;3896;48.758;8.888;2024-02-15T01:41:13;11.00;99.90
7708;DHT22;3896;48.758;8.888;2024-02-15T01:43:44;11.00;99.90
7708;DHT22;3896;48.758;8.888;2024-02-15T01:46:14;11.00;99.90
7708;DHT22;3896;48.758;8.888;2024-02-15T01:48:40;10.90;99.90
7708;DHT22;3896;48.758;8.888;2024-02-15T01:51:07;10.90;99.90
7708;DHT22;3896;48.758;8.888;2024-02-15T01:53:35;10.90;99.90
7708;DHT22;3896;48.758;8.888;2024-02-15T01:56:01;10.90;99.90
7708;DHT22;3896;48.758;8.888;2024-02-15T01:58:27;10.90;99.90
7708;DHT22;3896;48.758;8.888;2024-02-15T02:00:53;10.80;99.90
7708;DHT22;3896;48.758;8.888;2024-02-15T02:03:21;10.80;99.90
7708;DHT22;3896;48.758;8.888;2024-02-15T02:05:47;10.70;99.90
7708;DHT22;3896;48.758;8.888;2024-02-15T02:08:12;10.70;99.90
7708;DHT22;3896;48.758;8.888;2024-02-15T02:10:41;10.60;99.90
7708;DHT22;3896;48.758;8.888;2024-02-15T02:13:08;10.50;99.90
7708;DHT22;3896;48.758;8.888;2024-02-15T02:15:35;10.50;99.90
7708;DHT22;3896;48.758;8.888;2024-02-15T02:18:03;10.40;99.90
7708;DHT22;3896;48.758;8.888;2024-02-15T02:20:31;10.30;99.90
7708;DHT22;3896;48.758;8.888;2024-02-15T02:23:14;10.30;99.90
7708;DHT22;3896;48.758;8.888;2024-02-15T02:25:40;10.20;99.90
7708;DHT22;3896;48.758;8.888;2024-02-15T02:28:09;10.10;99.90
7708;DHT22;3896;48.758;8.888;2024-02-15T02:30:35;10.10;99.90
7708;DHT22;3896;48.758;8.888;2024-02-15T02:33:01;10.00;99.90
7708;DHT22;3896;48.758;8.888;2024-02-15T02:35:27;10.00;99.90
7708;DHT22;3896;48.758;8.888;2024-02-15T02:37:56;9.90;99.90
7708;DHT22;3896;48.758;8.888;2024-02-15T02:40:22;9.80;99.90
7708;DHT22;3896;48.758;8.888;2024-02-15T02:59:07;9.30;99.90
7708;DHT22;3896;48.758;8.888;2024-02-15T03:01:33;9.20;99.90
7708;DHT22;3896;48.758;8.888;2024-02-15T03:03:59;9.20;99.90
7708;DHT22;3896;48.758;8.888;2024-02-15T03:06:24;9.10;99.90
7708;DHT22;3896;48.758;8.888;2024-02-15T03:08:50;9.10;99.90
7708;DHT22;3896;48.758;8.888;2024-02-15T03:11:25;9.10;99.90
7708;DHT22;3896;48.758;8.888;2024-02-15T03:13:50;9.00;99.90
7708;DHT22;3896;48.758;8.888;2024-02-15T03:16:16;9.00;99.90
7708;DHT22;3896;48.758;8.888;2024-02-15T03:18:42;8.90;99.90
7708;DHT22;3896;48.758;8.888;2024-02-15T03:21:08;8.90;99.90
7708;DHT22;3896;48.758;8.888;2024-02-15T03:23:39;8.80;99.90
7708;DHT22;3896;48.758;8.888;2024-02-15T03:26:08;8.80;99.90
7708;DHT22;3896;48.758;8.888;2024-02-15T03:28:34;8.70;99.90
7708;DHT22;3896;48.758;8.888;2024-02-15T03:31:02;8.70;99.90
7708;DHT22;3896;48.758;8.888;2024-02-15T03:33:27;8.60;99.90
7708;DHT22;3896;48.758;8.888;2024-02-15T03:35:58;8.60;99.90
7708;DHT22;3896;48.758;8.888;2024-02-15T03:38:29;8.50;99.90
7708;DHT22;3896;48.758;8.888;2024-02-15T03:40:56;8.50;99.90
7708;DHT22;3896;48.758;8.888;2024-02-15T03:43:22;8.50;99.90
7708;DHT22;3896;48.758;8.888;2024-02-15T03:45:49;8.40;99.90
7708;DHT22;3896;48.758;8.888;2024-02-15T03:48:14;8.40;99.90
7708;DHT22;3896;48.758;8.888;2024-02-15T03:50:40;8.40;99.90
7708;DHT22;3896;48.758;8.888;2024-02-15T03:53:07;8.40;99.90
7708;DHT22;3896;48.758;8.888;2024-02-15T03:55:33;8.30;99.90
7708;DHT22;3896;48.758;8.888;2024-02-15T03:57:58;8.30;99.90
7708;DHT22;3896;48.758;8.888;2024-02-15T04:00:24;8.30;99.90
7708;DHT22;3896;48.758;8.888;2024-02-15T04:02:50;8.30;99.90
7708;DHT22;3896;48.758;8.888;2024-02-15T04:05:16;8.30;99.90
7708;DHT22;3896;48.758;8.888;2024-02-15T04:07:44;8.30;99.90
7708;DHT22;3896;48.758;8.888;2024-02-15T04:10:09;8.30;99.90
7708;DHT22;3896;48.758;8.888;2024-02-15T04:12:35;8.30;99.90
7708;DHT22;3896;48.758;8.888;2024-02-15T04:15:00;8.30;99.90
7708;DHT22;3896;48.758;8.888;2024-02-15T04:17:31;8.30;99.90
7708;DHT22;3896;48.758;8.888;2024-02-15T04:19:59;8.40;99.90
7708;DHT22;3896;48.758;8.888;2024-02-15T04:22:25;8.30;99.90
7708;DHT22;3896;48.758;8.888;2024-02-15T04:24:50;8.40;99.90
7708;DHT22;3896;48.758;8.888;2024-02-15T04:27:16;8.40;99.90
7708;DHT22;3896;48.758;8.888;2024-02-15T04:29:46;8.40;99.90
7708;DHT22;3896;48.758;8.888;2024-02-15T04:32:12;8.40;99.90
7708;DHT22;3896;48.758;8.888;2024-02-15T04:34:39;8.40;99.90
7708;DHT22;3896;48.758;8.888;2024-02-15T04:37:04;8.50;99.90
7708;DHT22;3896;48.758;8.888;2024-02-15T04:39:36;8.50;99.90
7708;DHT22;3896;48.758;8.888;2024-02-15T04:42:03;8.50;99.90
7708;DHT22;3896;48.758;8.888;2024-02-15T04:44:30;8.50;99.90
7708;DHT22;3896;48.758;8.888;2024-02-15T04:46:55;8.50;99.90
7708;DHT22;3896;48.758;8.888;2024-02-15T04:49:21;8.50;99.90
7708;DHT22;3896;48.758;8.888;2024-02-15T04:51:48;8.50;99.90
7708;DHT22;3896;48.758;8.888;2024-02-15T04:54:14;8.60;99.90
7708;DHT22;3896;48.758;8.888;2024-02-15T04:56:40;8.60;99.90
7708;DHT22;3896;48.758;8.888;2024-02-15T04:59:07;8.60;99.90
7708;DHT22;3896;48.758;8.888;2024-02-15T05:01:35;8.60;99.90
7708;DHT22;3896;48.758;8.888;2024-02-15T05:04:01;8.60;99.90
7708;DHT22;3896;48.758;8.888;2024-02-15T05:06:29;8.60;99.90
7708;DHT22;3896;48.758;8.888;2024-02-15T05:08:55;8.60;99.90
7708;DHT22;3896;48.758;8.888;2024-02-15T05:11:22;8.60;99.90
7708;DHT22;3896;48.758;8.888;2024-02-15T05:13:48;8.70;99.90
7708;DHT22;3896;48.758;8.888;2024-02-15T05:16:17;8.70;99.90
7708;DHT22;3896;48.758;8.888;2024-02-15T05:18:43;8.70;99.90
7708;DHT22;3896;48.758;8.888;2024-02-15T05:21:08;8.70;99.90
7708;DHT22;3896;48.758;8.888;2024-02-15T05:23:40;8.70;99.90
7708;DHT22;3896;48.758;8.888;2024-02-15T05:26:08;8.70;99.90
7708;DHT22;3896;48.758;8.888;2024-02-15T05:28:33;8.70;99.90
7708;DHT22;3896;48.758;8.888;2024-02-15T05:31:13;8.70;99.90
7708;DHT22;3896;48.758;8.888;2024-02-15T05:33:45;8.70;99.90
7708;DHT22;3896;48.758;8.888;2024-02-15T05:36:16;8.80;99.90
7708;DHT22;3896;48.758;8.888;2024-02-15T05:38:47;8.70;99.90
7708;DHT22;3896;48.758;8.888;2024-02-15T05:41:13;8.80;99.90
7708;DHT22;3896;48.758;8.888;2024-02-15T05:43:39;8.80;99.90
7708;DHT22;3896;48.758;8.888;2024-02-15T05:46:07;8.80;99.90
7708;DHT22;3896;48.758;8.888;2024-02-15T05:48:33;8.80;99.90
7708;DHT22;3896;48.758;8.888;2024-02-15T05:51:01;8.80;99.90
7708;DHT22;3896;48.758;8.888;2024-02-15T05:53:26;8.80;99.90
7708;DHT22;3896;48.758;8.888;2024-02-15T05:55:52;8.80;99.90
7708;DHT22;3896;48.758;8.888;2024-02-15T05:58:18;8.80;99.90
7708;DHT22;3896;48.758;8.888;2024-02-15T06:00:44;8.80;99.90
7708;DHT22;3896;48.758;8.888;2024-02-15T06:03:10;8.80;99.90
7708;DHT22;3896;48.758;8.888;2024-02-15T06:05:37;8.80;99.90
7708;DHT22;3896;48.758;8.888;2024-02-15T06:08:03;8.80;99.90
7708;DHT22;3896;48.758;8.888;2024-02-15T06:10:29;8.80;99.90
7708;DHT22;3896;48.758;8.888;2024-02-15T06:12:56;8.80;99.90
7708;DHT22;3896;48.758;8.888;2024-02-15T06:15:22;8.80;99.90
7708;DHT22;3896;48.758;8.888;2024-02-15T06:17:49;8.80;99.90
7708;DHT22;3896;48.758;8.888;2024-02-15T06:20:15;8.80;99.90
7708;DHT22;3896;48.758;8.888;2024-02-15T06:22:46;8.80;99.90
7708;DHT22;3896;48.758;8.888;2024-02-15T06:25:12;8.80;99.90
7708;DHT22;3896;48.758;8.888;2024-02-15T06:27:39;8.80;99.90
7708;DHT22;3896;48.758;8.888;2024-02-15T06:30:11;8.80;99.90
7708;DHT22;3896;48.758;8.888;2024-02-15T06:32:56;8.80;99.90
7708;DHT22;3896;48.758;8.888;2024-02-15T06:35:41;8.80;99.90
7708;DHT22;3896;48.758;8.888;2024-02-15T06:38:25;8.70;99.90
7708;DHT22;3896;48.758;8.888;2024-02-15T06:41:09;8.70;99.90
7708;DHT22;3896;48.758;8.888;2024-02-15T06:43:35;8.70;99.90
7708;DHT22;3896;48.758;8.888;2024-02-15T06:46:02;8.70;99.90
7708;DHT22;3896;48.758;8.888;2024-02-15T06:48:28;8.70;99.90
7708;DHT22;3896;48.758;8.888;2024-02-15T06:50:53;8.70;99.90
7708;DHT22;3896;48.758;8.888;2024-02-15T06:53:20;8.70;99.90
7708;DHT22;3896;48.758;8.888;2024-02-15T06:55:46;8.70;99.90
7708;DHT22;3896;48.758;8.888;2024-02-15T06:58:15;8.70;99.90
7708;DHT22;3896;48.758;8.888;2024-02-15T07:00:41;8.70;99.90
7708;DHT22;3896;48.758;8.888;2024-02-15T07:03:08;8.70;99.90
7708;DHT22;3896;48.758;8.888;2024-02-15T07:05:34;8.70;99.90
7708;DHT22;3896;48.758;8.888;2024-02-15T07:08:00;8.70;99.90
7708;DHT22;3896;48.758;8.888;2024-02-15T07:10:26;8.60;99.90
7708;DHT22;3896;48.758;8.888;2024-02-15T07:12:52;8.70;99.90
7708;DHT22;3896;48.758;8.888;2024-02-15T07:15:17;8.70;99.90
7708;DHT22;3896;48.758;8.888;2024-02-15T07:17:43;8.70;99.90
7708;DHT22;3896;48.758;8.888;2024-02-15T07:20:11;8.70;99.90
7708;DHT22;3896;48.758;8.888;2024-02-15T07:22:38;8.70;99.90
7708;DHT22;3896;48.758;8.888;2024-02-15T07:25:04;8.70;99.90
7708;DHT22;3896;48.758;8.888;2024-02-15T07:27:30;8.70;99.90
7708;DHT22;3896;48.758;8.888;2024-02-15T07:29:55;8.80;99.90
7708;DHT22;3896;48.758;8.888;2024-02-15T07:32:21;8.80;99.90
7708;DHT22;3896;48.758;8.888;2024-02-15T07:34:47;8.80;99.90
7708;DHT22;3896;48.758;8.888;2024-02-15T07:37:13;8.90;99.90
7708;DHT22;3896;48.758;8.888;2024-02-15T07:39:41;8.90;99.90
7708;DHT22;3896;48.758;8.888;2024-02-15T07:42:07;8.90;99.90
7708;DHT22;3896;48.758;8.888;2024-02-15T07:44:34;9.00;99.90
7708;DHT22;3896;48.758;8.888;2024-02-15T07:47:04;9.00;99.90
7708;DHT22;3896;48.758;8.888;2024-02-15T07:49:30;9.00;99.90
7708;DHT22;3896;48.758;8.888;2024-02-15T07:51:56;9.00;99.90
7708;DHT22;3896;48.758;8.888;2024-02-15T07:54:24;9.10;99.90
7708;DHT22;3896;48.758;8.888;2024-02-15T07:56:50;9.10;99.90
7708;DHT22;3896;48.758;8.888;2024-02-15T07:59:16;9.10;99.90
7708;DHT22;3896;48.758;8.888;2024-02-15T08:01:44;9.20;99.90
7708;DHT22;3896;48.758;8.888;2024-02-15T08:04:19;9.20;99.90
7708;DHT22;3896;48.758;8.888;2024-02-15T08:06:45;9.30;99.90
7708;DHT22;3896;48.758;8.888;2024-02-15T08:09:11;9.30;99.90
7708;DHT22;3896;48.758;8.888;2024-02-15T08:11:42;9.40;99.90
7708;DHT22;3896;48.758;8.888;2024-02-15T08:14:07;9.40;99.90
7708;DHT22;3896;48.758;8.888;2024-02-15T08:16:36;9.40;99.90
7708;DHT22;3896;48.758;8.888;2024-02-15T08:19:03;9.50;99.90
7708;DHT22;3896;48.758;8.888;2024-02-15T08:21:31;9.60;99.90
7708;DHT22;3896;48.758;8.888;2024-02-15T08:24:05;9.60;99.90
7708;DHT22;3896;48.758;8.888;2024-02-15T08:26:40;9.70;99.90
7708;DHT22;3896;48.758;8.888;2024-02-15T08:29:07;9.70;99.90
7708;DHT22;3896;48.758;8.888;2024-02-15T08:31:32;9.80;99.90
7708;DHT22;3896;48.758;8.888;2024-02-15T08:34:02;9.90;99.90
7708;DHT22;3896;48.758;8.888;2024-02-15T08:36:35;9.90;99.90
7708;DHT22;3896;48.758;8.888;2024-02-15T08:39:05;9.90;99.90
7708;DHT22;3896;48.758;8.888;2024-02-15T08:41:31;10.00;99.90
7708;DHT22;3896;48.758;8.888;2024-02-15T08:43:56;10.00;99.90
7708;DHT22;3896;48.758;8.888;2024-02-15T08:46:23;10.10;99.90
7708;DHT22;3896;48.758;8.888;2024-02-15T08:48:50;10.10;99.90
7708;DHT22;3896;48.758;8.888;2024-02-15T08:51:16;10.20;99.90
7708;DHT22;3896;48.758;8.888;2024-02-15T08:53:43;10.20;99.90
7708;DHT22;3896;48.758;8.888;2024-02-15T08:56:08;10.30;99.90
7708;DHT22;3896;48.758;8.888;2024-02-15T08:58:35;10.30;99.90
7708;DHT22;3896;48.758;8.888;2024-02-15T09:01:01;10.40;99.90
7708;DHT22;3896;48.758;8.888;2024-02-15T09:03:28;10.50;99.90
7708;DHT22;3896;48.758;8.888;2024-02-15T09:05:53;10.60;99.90
7708;DHT22;3896;48.758;8.888;2024-02-15T09:08:19;10.60;99.90
7708;DHT22;3896;48.758;8.888;2024-02-15T09:10:47;10.70;99.90
7708;DHT22;3896;48.758;8.888;2024-02-15T09:13:12;10.80;99.90
7708;DHT22;3896;48.758;8.888;2024-02-15T09:15:40;10.90;99.90
7708;DHT22;3896;48.758;8.888;2024-02-15T09:18:07;11.00;99.90
7708;DHT22;3896;48.758;8.888;2024-02-15T09:20:35;11.10;99.90
7708;DHT22;3896;48.758;8.888;2024-02-15T09:23:03;11.20;99.90
7708;DHT22;3896;48.758;8.888;2024-02-15T09:25:37;11.30;99.90
7708;DHT22;3896;48.758;8.888;2024-02-15T09:28:03;11.40;99.90
7708;DHT22;3896;48.758;8.888;2024-02-15T09:30:28;11.50;99.90
7708;DHT22;3896;48.758;8.888;2024-02-15T09:32:56;11.70;99.90
7708;DHT22;3896;48.758;8.888;2024-02-15T09:35:23;11.70;99.90
7708;DHT22;3896;48.758;8.888;2024-02-15T09:37:49;11.80;99.90
7708;DHT22;3896;48.758;8.888;2024-02-15T09:40:15;12.00;99.90
7708;DHT22;3896;48.758;8.888;2024-02-15T09:42:43;12.00;99.90
7708;DHT22;3896;48.758;8.888;2024-02-15T09:45:11;12.20;99.90
7708;DHT22;3896;48.758;8.888;2024-02-15T09:47:40;12.30;99.90
7708;DHT22;3896;48.758;8.888;2024-02-15T09:50:11;12.40;99.90
7708;DHT22;3896;48.758;8.888;2024-02-15T09:52:39;12.60;99.90
7708;DHT22;3896;48.758;8.888;2024-02-15T09:55:07;12.70;99.90
7708;DHT22;3896;48.758;8.888;2024-02-15T09:57:35;12.90;99.90
7708;DHT22;3896;48.758;8.888;2024-02-15T10:00:01;13.00;99.90
7708;DHT22;3896;48.758;8.888;2024-02-15T10:02:29;13.10;99.90
7708;DHT22;3896;48.758;8.888;2024-02-15T10:04:58;13.30;99.90
7708;DHT22;3896;48.758;8.888;2024-02-15T10:07:25;13.40;99.90
7708;DHT22;3896;48.758;8.888;2024-02-15T10:09:52;13.60;99.90
7708;DHT22;3896;48.758;8.888;2024-02-15T10:12:18;13.70;99.90
7708;DHT22;3896;48.758;8.888;2024-02-15T10:14:50;13.80;99.90
7708;DHT22;3896;48.758;8.888;2024-02-15T10:17:18;14.00;99.90
7708;DHT22;3896;48.758;8.888;2024-02-15T10:19:45;14.10;99.80
7708;DHT22;3896;48.758;8.888;2024-02-15T10:22:12;14.30;99.10
7708;DHT22;3896;48.758;8.888;2024-02-15T10:24:41;14.50;98.00
7708;DHT22;3896;48.758;8.888;2024-02-15T10:27:06;14.60;97.20
7708;DHT22;3896;48.758;8.888;2024-02-15T10:29:33;14.80;96.60
7708;DHT22;3896;48.758;8.888;2024-02-15T10:32:00;14.90;95.50
7708;DHT22;3896;48.758;8.888;2024-02-15T10:34:27;15.00;94.70
7708;DHT22;3896;48.758;8.888;2024-02-15T10:37:10;15.20;93.70
7708;DHT22;3896;48.758;8.888;2024-02-15T10:39:36;15.30;93.30
7708;DHT22;3896;48.758;8.888;2024-02-15T10:42:03;15.40;92.40
7708;DHT22;3896;48.758;8.888;2024-02-15T10:44:31;15.50;91.80
7708;DHT22;3896;48.758;8.888;2024-02-15T10:46:59;15.70;91.40
7708;DHT22;3896;48.758;8.888;2024-02-15T10:49:26;15.80;91.00
7708;DHT22;3896;48.758;8.888;2024-02-15T10:51:58;16.00;90.40
7708;DHT22;3896;48.758;8.888;2024-02-15T10:54:35;16.10;89.20
7708;DHT22;3896;48.758;8.888;2024-02-15T10:57:05;16.20;88.10
7708;DHT22;3896;48.758;8.888;2024-02-15T10:59:38;16.40;86.50
7708;DHT22;3896;48.758;8.888;2024-02-15T11:02:29;16.50;85.50
7708;DHT22;3896;48.758;8.888;2024-02-15T11:05:01;16.60;85.40
7708;DHT22;3896;48.758;8.888;2024-02-15T11:07:29;16.70;84.40
7708;DHT22;3896;48.758;8.888;2024-02-15T11:09:56;16.90;83.60
7708;DHT22;3896;48.758;8.888;2024-02-15T11:12:23;17.00;83.30
7708;DHT22;3896;48.758;8.888;2024-02-15T11:14:49;17.10;82.30
7708;DHT22;3896;48.758;8.888;2024-02-15T11:23:00;17.40;80.10
7708;DHT22;3896;48.758;8.888;2024-02-15T11:25:34;17.60;79.30
7708;DHT22;3896;48.758;8.888;2024-02-15T11:30:53;17.70;78.00
7708;DHT22;3896;48.758;8.888;2024-02-15T11:33:29;17.80;77.90
7708;DHT22;3896;48.758;8.888;2024-02-15T11:36:15;17.90;77.90
7708;DHT22;3896;48.758;8.888;2024-02-15T11:38:43;18.00;77.70
7708;DHT22;3896;48.758;8.888;2024-02-15T11:41:10;18.10;76.90
7708;DHT22;3896;48.758;8.888;2024-02-15T11:46:16;18.30;76.20
7708;DHT22;3896;48.758;8.888;2024-02-15T11:48:45;18.40;75.60
7708;DHT22;3896;48.758;8.888;2024-02-15T11:54:06;18.50;74.90
7708;DHT22;3896;48.758;8.888;2024-02-15T11:56:56;18.60;74.50
7708;DHT22;3896;48.758;8.888;2024-02-15T11:59:41;18.70;74.10
7708;DHT22;3896;48.758;8.888;2024-02-15T12:02:20;18.80;72.50
7708;DHT22;3896;48.758;8.888;2024-02-15T12:05:12;18.90;71.90
7708;DHT22;3896;48.758;8.888;2024-02-15T12:07:58;18.90;71.30
7708;DHT22;3896;48.758;8.888;2024-02-15T12:10:42;19.00;71.00
7708;DHT22;3896;48.758;8.888;2024-02-15T12:13:26;19.10;70.30
7708;DHT22;3896;48.758;8.888;2024-02-15T12:16:15;19.20;70.30
7708;DHT22;3896;48.758;8.888;2024-02-15T12:18:59;19.20;69.30
7708;DHT22;3896;48.758;8.888;2024-02-15T12:21:26;19.30;68.50
7708;DHT22;3896;48.758;8.888;2024-02-15T12:23:53;19.40;67.90
7708;DHT22;3896;48.758;8.888;2024-02-15T12:26:19;19.40;67.80
7708;DHT22;3896;48.758;8.888;2024-02-15T12:28:50;19.50;67.10
7708;DHT22;3896;48.758;8.888;2024-02-15T12:31:16;19.60;66.50
7708;DHT22;3896;48.758;8.888;2024-02-15T12:33:43;19.60;66.00
7708;DHT22;3896;48.758;8.888;2024-02-15T12:36:08;19.70;65.60
7708;DHT22;3896;48.758;8.888;2024-02-15T12:38:35;19.80;65.50
7708;DHT22;3896;48.758;8.888;2024-02-15T12:41:04;19.80;65.20
7708;DHT22;3896;48.758;8.888;2024-02-15T12:43:29;19.90;65.00
7708;DHT22;3896;48.758;8.888;2024-02-15T12:45:56;19.90;64.40
7708;DHT22;3896;48.758;8.888;2024-02-15T12:48:22;19.90;64.30
7708;DHT22;3896;48.758;8.888;2024-02-15T12:50:48;19.90;63.60
7708;DHT22;3896;48.758;8.888;2024-02-15T12:53:24;20.00;63.80
7708;DHT22;3896;48.758;8.888;2024-02-15T12:55:54;20.00;63.50
7708;DHT22;3896;48.758;8.888;2024-02-15T12:58:22;20.00;63.50
7708;DHT22;3896;48.758;8.888;2024-02-15T13:00:54;20.00;63.70
7708;DHT22;3896;48.758;8.888;2024-02-15T13:03:20;20.00;63.30
7708;DHT22;3896;48.758;8.888;2024-02-15T13:05:46;20.00;62.90
7708;DHT22;3896;48.758;8.888;2024-02-15T13:08:14;20.00;62.70
7708;DHT22;3896;48.758;8.888;2024-02-15T13:10:40;20.00;62.10
7708;DHT22;3896;48.758;8.888;2024-02-15T13:13:06;20.00;62.30
7708;DHT22;3896;48.758;8.888;2024-02-15T13:15:36;20.00;62.10
7708;DHT22;3896;48.758;8.888;2024-02-15T13:18:03;20.00;62.10
7708;DHT22;3896;48.758;8.888;2024-02-15T13:20:31;20.00;62.40
7708;DHT22;3896;48.758;8.888;2024-02-15T13:23:02;20.10;62.50
7708;DHT22;3896;48.758;8.888;2024-02-15T13:25:36;20.10;62.60
7708;DHT22;3896;48.758;8.888;2024-02-15T13:28:03;20.10;62.50
7708;DHT22;3896;48.758;8.888;2024-02-15T13:30:29;20.20;61.90
7708;DHT22;3896;48.758;8.888;2024-02-15T13:32:55;20.30;61.30
7708;DHT22;3896;48.758;8.888;2024-02-15T13:35:21;20.30;61.30
7708;DHT22;3896;48.758;8.888;2024-02-15T13:37:52;20.40;61.00
7708;DHT22;3896;48.758;8.888;2024-02-15T13:40:19;20.40;61.20
7708;DHT22;3896;48.758;8.888;2024-02-15T13:42:49;20.40;61.30
7708;DHT22;3896;48.758;8.888;2024-02-15T13:45:21;20.50;61.20
7708;DHT22;3896;48.758;8.888;2024-02-15T13:47:53;20.50;60.80
7708;DHT22;3896;48.758;8.888;2024-02-15T13:50:21;20.50;60.30
7708;DHT22;3896;48.758;8.888;2024-02-15T13:52:47;20.40;60.30
7708;DHT22;3896;48.758;8.888;2024-02-15T13:55:14;20.40;59.70
7708;DHT22;3896;48.758;8.888;2024-02-15T13:57:44;20.40;59.70
7708;DHT22;3896;48.758;8.888;2024-02-15T14:00:11;20.40;59.70
7708;DHT22;3896;48.758;8.888;2024-02-15T14:02:43;20.50;59.80
7708;DHT22;3896;48.758;8.888;2024-02-15T14:05:09;20.40;59.70
7708;DHT22;3896;48.758;8.888;2024-02-15T14:07:39;20.40;59.80
7708;DHT22;3896;48.758;8.888;2024-02-15T14:10:06;20.40;59.70
7708;DHT22;3896;48.758;8.888;2024-02-15T14:12:32;20.40;59.70
7708;DHT22;3896;48.758;8.888;2024-02-15T14:14:58;20.40;59.70
7708;DHT22;3896;48.758;8.888;2024-02-15T14:17:23;20.40;59.60
7708;DHT22;3896;48.758;8.888;2024-02-15T14:19:49;20.40;59.60
7708;DHT22;3896;48.758;8.888;2024-02-15T14:22:15;20.40;59.10
7708;DHT22;3896;48.758;8.888;2024-02-15T14:24:43;20.30;59.20
7708;DHT22;3896;48.758;8.888;2024-02-15T14:27:12;20.30;59.00
7708;DHT22;3896;48.758;8.888;2024-02-15T14:29:40;20.30;58.80
7708;DHT22;3896;48.758;8.888;2024-02-15T14:32:25;20.30;58.60
7708;DHT22;3896;48.758;8.888;2024-02-15T14:35:09;20.30;58.80
7708;DHT22;3896;48.758;8.888;2024-02-15T14:37:34;20.30;59.10
7708;DHT22;3896;48.758;8.888;2024-02-15T14:40:00;20.30;58.90
7708;DHT22;3896;48.758;8.888;2024-02-15T14:42:25;20.30;58.90
7708;DHT22;3896;48.758;8.888;2024-02-15T14:44:51;20.30;58.70
7708;DHT22;3896;48.758;8.888;2024-02-15T14:47:17;20.40;58.90
7708;DHT22;3896;48.758;8.888;2024-02-15T14:49:43;20.40;58.80
7708;DHT22;3896;48.758;8.888;2024-02-15T14:52:09;20.40;58.70
7708;DHT22;3896;48.758;8.888;2024-02-15T14:54:36;20.40;58.60
7708;DHT22;3896;48.758;8.888;2024-02-15T14:57:01;20.40;58.60
7708;DHT22;3896;48.758;8.888;2024-02-15T14:59:27;20.50;58.70
7708;DHT22;3896;48.758;8.888;2024-02-15T15:01:52;20.50;58.50
7708;DHT22;3896;48.758;8.888;2024-02-15T15:04:18;20.40;58.50
7708;DHT22;3896;48.758;8.888;2024-02-15T15:06:44;20.40;58.40
7708;DHT22;3896;48.758;8.888;2024-02-15T15:09:48;20.40;58.70
7708;DHT22;3896;48.758;8.888;2024-02-15T15:12:43;20.40;58.90
7708;DHT22;3896;48.758;8.888;2024-02-15T15:15:11;20.30;59.00
7708;DHT22;3896;48.758;8.888;2024-02-15T15:17:40;20.30;58.80
7708;DHT22;3896;48.758;8.888;2024-02-15T15:20:05;20.20;58.70
7708;DHT22;3896;48.758;8.888;2024-02-15T15:22:34;20.20;58.60
7708;DHT22;3896;48.758;8.888;2024-02-15T15:25:00;20.10;58.60
7708;DHT22;3896;48.758;8.888;2024-02-15T15:27:27;20.10;58.60
7708;DHT22;3896;48.758;8.888;2024-02-15T15:29:53;20.00;58.60
7708;DHT22;3896;48.758;8.888;2024-02-15T15:32:19;20.00;58.70
7708;DHT22;3896;48.758;8.888;2024-02-15T15:34:45;19.90;58.70
7708;DHT22;3896;48.758;8.888;2024-02-15T15:37:10;19.80;58.70
7708;DHT22;3896;48.758;8.888;2024-02-15T15:39:37;19.80;58.80
7708;DHT22;3896;48.758;8.888;2024-02-15T15:42:04;19.70;59.00
7708;DHT22;3896;48.758;8.888;2024-02-15T15:44:32;19.60;59.30
7708;DHT22;3896;48.758;8.888;2024-02-15T15:46:59;19.60;60.20
7708;DHT22;3896;48.758;8.888;2024-02-15T15:49:25;19.50;60.60
7708;DHT22;3896;48.758;8.888;2024-02-15T15:51:51;19.50;60.70
7708;DHT22;3896;48.758;8.888;2024-02-15T15:54:18;19.40;60.90
7708;DHT22;3896;48.758;8.888;2024-02-15T15:56:45;19.30;61.50
7708;DHT22;3896;48.758;8.888;2024-02-15T15:59:10;19.30;62.50
7708;DHT22;3896;48.758;8.888;2024-02-15T16:01:36;19.20;62.80
7708;DHT22;3896;48.758;8.888;2024-02-15T16:04:03;19.10;63.40
7708;DHT22;3896;48.758;8.888;2024-02-15T16:06:29;19.10;63.90
7708;DHT22;3896;48.758;8.888;2024-02-15T16:08:54;19.00;64.20
7708;DHT22;3896;48.758;8.888;2024-02-15T16:11:20;18.90;64.60
7708;DHT22;3896;48.758;8.888;2024-02-15T16:13:45;18.90;65.10
7708;DHT22;3896;48.758;8.888;2024-02-15T16:16:13;18.80;65.60
7708;DHT22;3896;48.758;8.888;2024-02-15T16:18:40;18.70;65.90
7708;DHT22;3896;48.758;8.888;2024-02-15T16:21:05;18.60;66.30
7708;DHT22;3896;48.758;8.888;2024-02-15T16:23:31;18.60;66.70
7708;DHT22;3896;48.758;8.888;2024-02-15T16:25:56;18.50;66.90
7708;DHT22;3896;48.758;8.888;2024-02-15T16:28:23;18.40;67.30
7708;DHT22;3896;48.758;8.888;2024-02-15T16:30:50;18.30;67.60
7708;DHT22;3896;48.758;8.888;2024-02-15T16:33:16;18.20;67.80
7708;DHT22;3896;48.758;8.888;2024-02-15T16:35:41;18.10;68.00
7708;DHT22;3896;48.758;8.888;2024-02-15T16:38:07;18.00;68.30
7708;DHT22;3896;48.758;8.888;2024-02-15T16:40:34;17.90;68.50
7708;DHT22;3896;48.758;8.888;2024-02-15T16:43:00;17.80;68.70